Time;durP1;ratioP1;P1;durP2;ratioP2;P2;SDS_P1;SDS_P2;PMS_P1;PMS_P2;Temp;Humidity;BMP_temperature;BMP_pressure;BME280_temperature;BME280_humidity;BME280_pressure;Samples;Min_cycle;Max_cycle;Signal;HPM_P1;HPM_P2
2022/06/16 00:01:10;;;;;;;;;;;26.00;43.40;;;;;;1572777;74;625;-67
2022/06/16 00:03:12;;;;;;;;;;;26.10;43.30;;;;;;1570822;74;664;-67
2022/06/16 00:05:15;;;;;;;;;;;26.10;43.40;;;;;;1569172;74;1050;-66
2022/06/16 00:07:17;;;;;;;;;;;26.10;43.40;;;;;;1583538;74;713;-68
2022/06/16 00:09:18;;;;;;;;;;;26.10;43.30;;;;;;1567858;74;736;-68
2022/06/16 00:11:20;;;;;;;;;;;26.10;43.40;;;;;;1565963;74;695;-66
2022/06/16 00:13:22;;;;;;;;;;;26.10;43.40;;;;;;1570856;74;1351;-66
2022/06/16 00:15:27;;;;;;;;;;;26.10;43.40;;;;;;1560435;74;714;-66
2022/06/16 00:17:28;;;;;;;;;;;26.10;43.30;;;;;;1563727;75;1666;-66
2022/06/16 00:19:30;;;;;;;;;;;26.00;43.40;;;;;;1570375;74;1957;-68
2022/06/16 00:21:32;;;;;;;;;;;26.10;43.30;;;;;;1571271;74;758;-68
2022/06/16 00:23:34;;;;;;;;;;;26.10;43.40;;;;;;1560426;74;1177;-66
2022/06/16 00:25:36;;;;;;;;;;;26.10;43.40;;;;;;1569864;74;597;-66
2022/06/16 00:27:38;;;;;;;;;;;26.10;43.40;;;;;;1578576;74;1548;-66
2022/06/16 00:29:39;;;;;;;;;;;26.10;43.40;;;;;;1571727;74;756;-66
2022/06/16 00:31:41;;;;;;;;;;;26.10;43.40;;;;;;1566889;74;618;-65
2022/06/16 00:33:43;;;;;;;;;;;26.10;43.40;;;;;;1564717;74;1142;-67
2022/06/16 00:35:45;;;;;;;;;;;26.00;43.50;;;;;;1563870;74;672;-67
2022/06/16 00:37:47;;;;;;;;;;;26.10;43.40;;;;;;1563748;74;707;-67
2022/06/16 00:39:49;;;;;;;;;;;26.00;43.50;;;;;;1581075;74;1924;-66
2022/06/16 00:41:51;;;;;;;;;;;26.00;43.40;;;;;;1571998;74;1603;-66
2022/06/16 00:43:53;;;;;;;;;;;26.00;43.40;;;;;;1566720;74;1150;-66
2022/06/16 00:45:56;;;;;;;;;;;26.00;43.40;;;;;;1564026;74;675;-66
2022/06/16 00:47:58;;;;;;;;;;;26.10;43.40;;;;;;1563397;74;706;-67
2022/06/16 00:50:00;;;;;;;;;;;26.00;43.40;;;;;;1565063;74;742;-65
2022/06/16 00:52:03;;;;;;;;;;;26.00;43.50;;;;;;1561649;74;676;-67
2022/06/16 00:54:23;;;;;;;;;;;26.00;43.50;;;;;;1561953;71;224493;-64
2022/06/16 00:56:25;;;;;;;;;;;26.10;43.50;;;;;;1563394;75;770;-67
2022/06/16 00:58:27;;;;;;;;;;;26.00;43.40;;;;;;1565976;75;744;-68
2022/06/16 01:02:44;;;;;;;;;;;26.00;43.50;;;;;;1562349;75;863;-67
2022/06/16 01:04:52;;;;;;;;;;;26.00;43.50;;;;;;1570902;75;1192;-68
2022/06/16 01:06:54;;;;;;;;;;;26.00;43.60;;;;;;1563726;75;779;-68
2022/06/16 01:08:57;;;;;;;;;;;26.00;43.50;;;;;;1557837;75;1593;-68
2022/06/16 01:11:02;;;;;;;;;;;26.00;43.50;;;;;;1563435;75;710;-67
2022/06/16 01:15:43;;;;;;;;;;;26.00;43.50;;;;;;1556054;74;1612;-67
2022/06/16 01:18:03;;;;;;;;;;;26.00;43.50;;;;;;1558144;75;741;-67
2022/06/16 01:20:13;;;;;;;;;;;26.00;43.50;;;;;;1567478;75;1927;-66
2022/06/16 01:22:16;;;;;;;;;;;26.00;43.60;;;;;;1565924;74;751;-67
2022/06/16 01:24:38;;;;;;;;;;;25.90;43.10;;;;;;1557132;75;1698;-66
2022/06/16 01:26:47;;;;;;;;;;;26.00;43.50;;;;;;1552640;75;747;-67
2022/06/16 01:29:03;;;;;;;;;;;25.90;43.00;;;;;;1538740;75;2342;-67
2022/06/16 01:31:08;;;;;;;;;;;26.00;43.60;;;;;;1568417;74;629;-66
2022/06/16 01:33:18;;;;;;;;;;;26.00;43.50;;;;;;1545819;74;684;-67
2022/06/16 01:35:28;;;;;;;;;;;26.00;43.50;;;;;;1560847;74;1836;-69
2022/06/16 01:37:34;;;;;;;;;;;26.00;43.50;;;;;;1554940;75;1539;-69
2022/06/16 01:39:44;;;;;;;;;;;26.00;43.50;;;;;;1566355;75;1927;-68
2022/06/16 01:41:50;;;;;;;;;;;26.00;43.60;;;;;;1561416;75;1671;-67
2022/06/16 01:43:53;;;;;;;;;;;26.00;43.60;;;;;;1559311;74;573;-66
2022/06/16 01:45:56;;;;;;;;;;;26.00;43.50;;;;;;1569377;74;676;-66
2022/06/16 01:47:58;;;;;;;;;;;26.00;43.50;;;;;;1561558;75;746;-67
2022/06/16 01:50:02;;;;;;;;;;;26.00;43.50;;;;;;1558911;74;759;-67
2022/06/16 01:52:05;;;;;;;;;;;26.00;43.50;;;;;;1557251;75;1826;-67
2022/06/16 01:54:24;;;;;;;;;;;26.00;43.40;;;;;;1565574;74;1141;-67
2022/06/16 01:56:30;;;;;;;;;;;26.00;43.50;;;;;;1567308;74;1121;-64
2022/06/16 01:58:33;;;;;;;;;;;25.90;43.00;;;;;;1557338;75;1783;-66
2022/06/16 02:00:35;;;;;;;;;;;26.00;43.60;;;;;;1567044;74;1935;-65
2022/06/16 02:02:37;;;;;;;;;;;25.90;43.00;;;;;;1559982;75;764;-66
2022/06/16 02:04:40;;;;;;;;;;;25.90;43.00;;;;;;1557491;74;1132;-66
2022/06/16 02:06:43;;;;;;;;;;;25.90;42.90;;;;;;1555514;75;675;-67
2022/06/16 02:08:46;;;;;;;;;;;25.90;42.90;;;;;;1559500;75;687;-66
2022/06/16 02:10:55;;;;;;;;;;;26.00;43.50;;;;;;1565092;75;809;-65
2022/06/16 02:12:57;;;;;;;;;;;25.90;42.90;;;;;;1566593;74;777;-66
2022/06/16 02:14:59;;;;;;;;;;;25.90;42.90;;;;;;1567664;74;1132;-66
2022/06/16 02:17:02;;;;;;;;;;;25.90;42.90;;;;;;1559518;75;707;-66
2022/06/16 02:19:05;;;;;;;;;;;25.90;42.90;;;;;;1564001;75;1563;-66
2022/06/16 02:21:14;;;;;;;;;;;26.00;43.50;;;;;;1559023;75;1934;-66
2022/06/16 02:23:16;;;;;;;;;;;26.00;43.50;;;;;;1560718;74;758;-66
2022/06/16 02:25:18;;;;;;;;;;;25.90;42.90;;;;;;1553601;75;1180;-65
2022/06/16 02:27:20;;;;;;;;;;;25.90;42.90;;;;;;1561501;75;699;-68
2022/06/16 02:29:23;;;;;;;;;;;25.90;42.90;;;;;;1541644;76;659;-66
2022/06/16 02:31:43;;;;;;;;;;;25.90;42.80;;;;;;1562168;74;689;-69
2022/06/16 02:33:47;;;;;;;;;;;25.90;42.90;;;;;;1547326;74;1586;-66
2022/06/16 02:35:56;;;;;;;;;;;25.90;42.90;;;;;;1569382;74;1082;-66
2022/06/16 02:38:02;;;;;;;;;;;25.90;42.90;;;;;;1536813;75;1056;-65
2022/06/16 02:40:08;;;;;;;;;;;26.00;43.40;;;;;;1563657;75;1950;-67
2022/06/16 02:42:13;;;;;;;;;;;25.90;42.90;;;;;;1558993;75;1880;-68
2022/06/16 02:44:16;;;;;;;;;;;25.90;42.90;;;;;;1553269;74;1132;-71
2022/06/16 02:46:23;;;;;;;;;;;25.90;42.80;;;;;;1561379;75;851;-68
2022/06/16 02:48:40;;;;;;;;;;;26.00;43.40;;;;;;1559904;75;1633;-69
2022/06/16 02:50:50;;;;;;;;;;;25.90;42.80;;;;;;1551528;75;820;-67
2022/06/16 02:52:53;;;;;;;;;;;26.00;43.40;;;;;;1563520;74;782;-68
2022/06/16 02:55:05;;;;;;;;;;;25.90;42.80;;;;;;1562145;75;1150;-68
2022/06/16 02:57:08;;;;;;;;;;;26.00;43.40;;;;;;1555592;75;1680;-66
2022/06/16 02:59:21;;;;;;;;;;;26.00;43.20;;;;;;1565914;75;686;-68
2022/06/16 03:01:23;;;;;;;;;;;26.00;43.20;;;;;;1557826;74;1927;-66
2022/06/16 03:03:29;;;;;;;;;;;26.00;43.20;;;;;;1565396;75;715;-67
2022/06/16 03:05:31;;;;;;;;;;;26.00;43.10;;;;;;1557426;75;1077;-67
2022/06/16 03:07:37;;;;;;;;;;;26.00;43.10;;;;;;1558555;75;776;-66
2022/06/16 03:09:37;;;;;;;;;;;26.10;43.10;;;;;;1562273;75;1320;-66
2022/06/16 03:11:39;;;;;;;;;;;26.10;43.10;;;;;;1563297;75;696;-68
2022/06/16 03:13:41;;;;;;;;;;;26.10;43.20;;;;;;1545268;74;664;-69
2022/06/16 03:15:43;;;;;;;;;;;26.10;43.10;;;;;;1568752;75;1661;-68
2022/06/16 03:17:45;;;;;;;;;;;26.20;43.00;;;;;;1562101;75;767;-67
2022/06/16 03:19:47;;;;;;;;;;;26.10;43.00;;;;;;1557749;75;795;-68
2022/06/16 03:21:49;;;;;;;;;;;26.20;43.00;;;;;;1562220;74;1936;-67
2022/06/16 03:23:51;;;;;;;;;;;26.10;42.90;;;;;;1565430;75;753;-66
2022/06/16 03:25:52;;;;;;;;;;;26.20;42.80;;;;;;1557329;75;1148;-67
2022/06/16 03:27:55;;;;;;;;;;;26.30;42.60;;;;;;1564161;75;758;-68
2022/06/16 03:29:57;;;;;;;;;;;26.30;42.50;;;;;;1555712;74;1536;-67
2022/06/16 03:31:59;;;;;;;;;;;26.30;42.40;;;;;;1570733;74;725;-68
2022/06/16 03:34:03;;;;;;;;;;;26.20;42.50;;;;;;1561501;74;1178;-67
2022/06/16 03:36:05;;;;;;;;;;;26.20;42.50;;;;;;1567207;75;784;-67
2022/06/16 03:40:18;;;;;;;;;;;26.30;42.40;;;;;;1562915;75;1927;-67
2022/06/16 03:42:20;;;;;;;;;;;26.30;42.30;;;;;;1558744;75;731;-67
2022/06/16 03:44:22;;;;;;;;;;;26.30;42.30;;;;;;1556390;74;1285;-68
2022/06/16 03:46:24;;;;;;;;;;;26.30;42.20;;;;;;1562395;75;668;-68
2022/06/16 03:48:25;;;;;;;;;;;26.40;42.10;;;;;;1563117;75;826;-67
2022/06/16 03:50:27;;;;;;;;;;;26.30;42.10;;;;;;1566105;75;671;-69
2022/06/16 03:52:29;;;;;;;;;;;26.30;42.10;;;;;;1555032;74;606;-67
2022/06/16 03:54:31;;;;;;;;;;;26.30;42.20;;;;;;1565109;75;1108;-67
2022/06/16 03:56:33;;;;;;;;;;;26.40;42.20;;;;;;1569385;74;808;-67
2022/06/16 03:58:35;;;;;;;;;;;26.30;42.10;;;;;;1560343;75;1495;-67
2022/06/16 04:00:37;;;;;;;;;;;26.30;42.10;;;;;;1561066;74;1912;-68
2022/06/16 04:02:39;;;;;;;;;;;26.30;42.20;;;;;;1560333;75;740;-68
2022/06/16 04:04:40;;;;;;;;;;;26.30;42.10;;;;;;1563369;74;1160;-69
2022/06/16 04:06:42;;;;;;;;;;;26.20;42.30;;;;;;1555355;75;779;-68
2022/06/16 04:08:44;;;;;;;;;;;26.20;42.30;;;;;;1558409;75;686;-69
2022/06/16 04:10:46;;;;;;;;;;;26.10;42.40;;;;;;1569454;75;754;-67
2022/06/16 04:12:48;;;;;;;;;;;26.10;42.50;;;;;;1559493;74;1547;-67
2022/06/16 04:14:50;;;;;;;;;;;26.10;42.60;;;;;;1568475;74;1161;-67
2022/06/16 04:16:53;;;;;;;;;;;26.10;42.70;;;;;;1557731;75;759;-69
2022/06/16 04:18:55;;;;;;;;;;;26.10;42.70;;;;;;1564127;75;785;-68
2022/06/16 04:20:57;;;;;;;;;;;26.10;42.70;;;;;;1559506;74;1936;-68
2022/06/16 04:22:59;;;;;;;;;;;26.10;42.80;;;;;;1559428;75;677;-67
2022/06/16 04:25:01;;;;;;;;;;;26.00;42.80;;;;;;1558236;75;1144;-68
2022/06/16 04:27:03;;;;;;;;;;;26.10;42.80;;;;;;1561006;75;1677;-69
2022/06/16 04:29:06;;;;;;;;;;;26.00;42.80;;;;;;1559761;74;692;-67
2022/06/16 04:31:08;;;;;;;;;;;26.10;42.80;;;;;;1567029;75;1974;-68
2022/06/16 04:33:10;;;;;;;;;;;26.00;42.80;;;;;;1561826;75;716;-68
2022/06/16 04:35:12;;;;;;;;;;;26.00;42.80;;;;;;1562028;74;1193;-67
2022/06/16 04:37:14;;;;;;;;;;;26.00;42.90;;;;;;1560033;75;865;-68
2022/06/16 04:39:18;;;;;;;;;;;25.90;42.40;;;;;;1563806;75;640;-67
2022/06/16 04:41:20;;;;;;;;;;;26.00;42.90;;;;;;1556696;75;1924;-67
2022/06/16 04:43:21;;;;;;;;;;;26.00;42.90;;;;;;1555471;74;737;-67
2022/06/16 04:45:23;;;;;;;;;;;26.00;43.00;;;;;;1550849;75;1140;-67
2022/06/16 04:47:26;;;;;;;;;;;26.00;43.00;;;;;;1563470;75;688;-67
2022/06/16 04:49:27;;;;;;;;;;;26.00;43.00;;;;;;1564084;75;710;-67
2022/06/16 04:51:29;;;;;;;;;;;26.00;43.10;;;;;;1545308;74;707;-67
2022/06/16 04:53:32;;;;;;;;;;;26.00;43.00;;;;;;1563320;75;1573;-67
2022/06/16 04:55:34;;;;;;;;;;;26.00;43.10;;;;;;1561708;74;1156;-66
2022/06/16 04:57:36;;;;;;;;;;;26.10;43.00;;;;;;1558761;74;781;-67
2022/06/16 04:59:38;;;;;;;;;;;26.00;42.90;;;;;;1552159;75;731;-67
2022/06/16 05:01:40;;;;;;;;;;;26.00;43.00;;;;;;1567725;75;1932;-68
2022/06/16 05:03:42;;;;;;;;;;;26.00;43.10;;;;;;1549630;74;748;-68
2022/06/16 05:05:45;;;;;;;;;;;26.10;43.00;;;;;;1571893;74;1142;-69
2022/06/16 05:07:47;;;;;;;;;;;26.10;43.10;;;;;;1564382;75;1565;-67
2022/06/16 05:09:48;;;;;;;;;;;26.00;43.10;;;;;;1555638;75;742;-68
2022/06/16 05:11:50;;;;;;;;;;;26.10;43.10;;;;;;1552557;75;688;-68
2022/06/16 05:13:52;;;;;;;;;;;26.10;43.10;;;;;;1548503;74;773;-70
2022/06/16 05:15:54;;;;;;;;;;;26.20;43.10;;;;;;1554327;75;1109;-67
2022/06/16 05:17:56;;;;;;;;;;;26.20;43.00;;;;;;1550570;75;870;-68
2022/06/16 05:19:58;;;;;;;;;;;26.10;42.90;;;;;;1554441;75;669;-67
2022/06/16 05:22:00;;;;;;;;;;;26.20;42.90;;;;;;1553771;74;1942;-66
2022/06/16 05:24:02;;;;;;;;;;;26.10;42.90;;;;;;1548903;74;1145;-66
2022/06/16 05:26:04;;;;;;;;;;;26.10;42.90;;;;;;1551588;75;735;-67
2022/06/16 05:28:06;;;;;;;;;;;26.20;42.90;;;;;;1551805;74;711;-69
2022/06/16 05:30:08;;;;;;;;;;;26.20;42.90;;;;;;1560442;74;682;-68
2022/06/16 05:32:10;;;;;;;;;;;26.20;42.90;;;;;;1557508;74;641;-67
2022/06/16 05:34:12;;;;;;;;;;;26.20;42.80;;;;;;1564785;74;1309;-68
2022/06/16 05:36:14;;;;;;;;;;;26.30;42.80;;;;;;1559371;75;1655;-67
2022/06/16 05:38:16;;;;;;;;;;;26.20;42.90;;;;;;1562754;75;754;-68
2022/06/16 05:40:18;;;;;;;;;;;26.20;42.90;;;;;;1552053;75;748;-68
2022/06/16 05:42:20;;;;;;;;;;;26.30;42.80;;;;;;1553713;74;1944;-67
2022/06/16 05:44:22;;;;;;;;;;;26.20;42.70;;;;;;1557780;75;1155;-67
2022/06/16 05:46:23;;;;;;;;;;;26.20;42.80;;;;;;1560607;75;687;-68
2022/06/16 05:48:25;;;;;;;;;;;26.10;42.90;;;;;;1555549;75;570;-67
2022/06/16 05:50:27;;;;;;;;;;;26.10;42.90;;;;;;1560924;74;1568;-70
2022/06/16 05:52:29;;;;;;;;;;;26.00;43.00;;;;;;1560647;75;663;-70
2022/06/16 05:54:31;;;;;;;;;;;26.10;43.10;;;;;;1549094;75;1203;-67
2022/06/16 05:56:33;;;;;;;;;;;26.00;43.10;;;;;;1561115;74;706;-67
2022/06/16 05:58:35;;;;;;;;;;;26.10;43.10;;;;;;1564370;74;829;-67
2022/06/16 06:00:38;;;;;;;;;;;26.00;43.10;;;;;;1570139;74;799;-67
2022/06/16 06:02:40;;;;;;;;;;;26.00;43.20;;;;;;1557949;74;1901;-67
2022/06/16 06:04:42;;;;;;;;;;;25.90;42.60;;;;;;1554004;74;1545;-67
2022/06/16 06:06:44;;;;;;;;;;;25.90;42.70;;;;;;1557518;75;709;-64
2022/06/16 06:18:06;;;;;;;;;;;25.90;42.70;;;;;;1553325;74;1617;-67
2022/06/16 06:20:09;;;;;;;;;;;25.90;42.80;;;;;;1547903;74;716;-68
2022/06/16 06:22:13;;;;;;;;;;;25.90;42.80;;;;;;1561709;74;1938;-66
2022/06/16 06:24:15;;;;;;;;;;;25.90;42.90;;;;;;1555556;75;1137;-66
2022/06/16 06:26:17;;;;;;;;;;;25.90;42.80;;;;;;1539244;74;693;-66
2022/06/16 06:28:20;;;;;;;;;;;25.90;42.80;;;;;;1550891;74;704;-66
2022/06/16 06:30:23;;;;;;;;;;;25.80;42.80;;;;;;1558407;74;734;-69
2022/06/16 06:32:25;;;;;;;;;;;25.90;42.80;;;;;;1560361;74;1586;-67
2022/06/16 06:34:27;;;;;;;;;;;25.80;42.80;;;;;;1552739;74;1191;-67
2022/06/16 06:36:29;;;;;;;;;;;25.90;42.80;;;;;;1546521;74;718;-67
2022/06/16 06:38:31;;;;;;;;;;;25.80;42.80;;;;;;1550932;75;768;-65
2022/06/16 06:40:33;;;;;;;;;;;25.80;42.80;;;;;;1543811;74;710;-65
2022/06/16 06:42:35;;;;;;;;;;;25.90;42.80;;;;;;1550814;74;1934;-68
2022/06/16 06:44:37;;;;;;;;;;;25.90;42.80;;;;;;1542778;75;1129;-67
2022/06/16 06:46:39;;;;;;;;;;;25.90;42.90;;;;;;1559913;74;1522;-67
2022/06/16 06:48:41;;;;;;;;;;;25.90;42.90;;;;;;1549061;74;673;-65
2022/06/16 06:50:43;;;;;;;;;;;25.80;42.90;;;;;;1545722;74;700;-67
2022/06/16 06:52:45;;;;;;;;;;;25.90;42.90;;;;;;1548684;75;749;-67
2022/06/16 06:55:07;;;;;;;;;;;25.90;43.00;;;;;;1541408;75;1172;-66
2022/06/16 06:57:09;;;;;;;;;;;25.90;43.10;;;;;;1487819;77;1217;-56
2022/06/16 06:59:13;;;;;;;;;;;25.80;43.10;;;;;;1487022;78;691;-59
2022/06/16 07:01:15;;;;;;;;;;;25.90;43.20;;;;;;1493293;78;1608;-57
2022/06/16 07:03:17;;;;;;;;;;;25.80;43.20;;;;;;1494565;78;1970;-59
2022/06/16 07:05:19;;;;;;;;;;;25.80;43.30;;;;;;1496705;78;685;-57
2022/06/16 07:07:22;;;;;;;;;;;25.80;43.30;;;;;;1488334;78;1095;-57
2022/06/16 07:09:24;;;;;;;;;;;25.80;43.30;;;;;;1492712;78;684;-57
2022/06/16 07:11:26;;;;;;;;;;;25.80;43.20;;;;;;1487411;78;821;-57
2022/06/16 07:13:28;;;;;;;;;;;25.70;43.30;;;;;;1493949;78;695;-57
2022/06/16 07:15:30;;;;;;;;;;;25.80;43.30;;;;;;1491628;78;1554;-55
2022/06/16 07:17:32;;;;;;;;;;;25.80;43.20;;;;;;1495987;78;1120;-57
2022/06/16 07:19:35;;;;;;;;;;;25.80;43.20;;;;;;1499800;77;675;-59
2022/06/16 07:21:37;;;;;;;;;;;25.80;43.30;;;;;;1489765;78;1923;-60
2022/06/16 07:23:39;;;;;;;;;;;25.80;43.20;;;;;;1493705;78;722;-57
2022/06/16 07:25:41;;;;;;;;;;;25.80;43.20;;;;;;1487189;78;1117;-57
2022/06/16 07:27:43;;;;;;;;;;;25.90;43.20;;;;;;1498299;78;684;-56
2022/06/16 07:29:47;;;;;;;;;;;25.80;43.20;;;;;;1493245;78;1459;-57
2022/06/16 07:31:48;;;;;;;;;;;25.80;43.20;;;;;;1488876;78;689;-59
2022/06/16 07:33:53;;;;;;;;;;;25.80;43.30;;;;;;1496061;78;684;-59
2022/06/16 07:35:55;;;;;;;;;;;25.80;43.20;;;;;;1486896;78;1212;-55
2022/06/16 07:37:57;;;;;;;;;;;25.80;43.20;;;;;;1492650;78;801;-55
2022/06/16 07:39:59;;;;;;;;;;;25.90;43.20;;;;;;1489607;78;689;-58
2022/06/16 07:42:01;;;;;;;;;;;25.90;43.10;;;;;;1487151;78;1940;-59
2022/06/16 07:44:04;;;;;;;;;;;25.90;43.20;;;;;;1494669;78;1282;-57
2022/06/16 07:46:06;;;;;;;;;;;25.90;43.10;;;;;;1493449;78;1127;-57
2022/06/16 07:48:08;;;;;;;;;;;25.90;43.10;;;;;;1488493;78;774;-59
2022/06/16 07:50:11;;;;;;;;;;;25.90;43.10;;;;;;1486178;78;961;-55
2022/06/16 07:52:13;;;;;;;;;;;25.90;43.10;;;;;;1494568;78;732;-58
2022/06/16 07:54:15;;;;;;;;;;;25.90;43.00;;;;;;1484289;78;675;-56
2022/06/16 07:56:17;;;;;;;;;;;25.90;43.00;;;;;;1494209;78;1498;-55
2022/06/16 07:58:18;;;;;;;;;;;25.90;43.10;;;;;;1482698;78;818;-59
2022/06/16 08:00:24;;;;;;;;;;;26.00;43.70;;;;;;1492611;78;718;-60
2022/06/16 08:02:26;;;;;;;;;;;26.00;43.70;;;;;;1490988;78;1946;-59
2022/06/16 08:04:28;;;;;;;;;;;26.10;43.60;;;;;;1487711;78;710;-59
2022/06/16 08:06:30;;;;;;;;;;;26.10;43.60;;;;;;1493838;78;1133;-59
2022/06/16 08:08:32;;;;;;;;;;;26.20;43.50;;;;;;1491024;78;660;-57
2022/06/16 08:10:35;;;;;;;;;;;26.20;43.40;;;;;;1489610;78;1611;-58
2022/06/16 08:12:38;;;;;;;;;;;26.20;43.30;;;;;;1484796;78;683;-56
2022/06/16 08:14:40;;;;;;;;;;;26.20;43.40;;;;;;1482125;78;710;-59
2022/06/16 08:16:42;;;;;;;;;;;26.10;43.30;;;;;;1493868;78;1124;-56
2022/06/16 08:18:44;;;;;;;;;;;26.20;43.40;;;;;;1491862;78;684;-55
2022/06/16 08:20:47;;;;;;;;;;;26.10;43.30;;;;;;1489712;78;748;-59
2022/06/16 08:22:49;;;;;;;;;;;26.10;43.40;;;;;;1493192;78;1918;-56
2022/06/16 08:24:51;;;;;;;;;;;26.10;43.40;;;;;;1491479;78;1585;-58
2022/06/16 08:26:52;;;;;;;;;;;26.10;43.60;;;;;;1494705;78;1142;-57
2022/06/16 08:28:54;;;;;;;;;;;26.20;43.70;;;;;;1494145;78;704;-58
2022/06/16 08:30:56;;;;;;;;;;;26.20;43.90;;;;;;1488551;78;675;-59
2022/06/16 08:32:58;;;;;;;;;;;26.20;44.00;;;;;;1486590;78;666;-56
2022/06/16 08:35:00;;;;;;;;;;;26.20;44.20;;;;;;1494515;78;794;-55
2022/06/16 08:37:02;;;;;;;;;;;26.20;44.40;;;;;;1489513;78;1118;-59
2022/06/16 08:39:05;;;;;;;;;;;26.20;44.40;;;;;;1488286;78;1539;-56
2022/06/16 08:41:13;;;;;;;;;;;26.30;44.40;;;;;;1490583;78;691;-58
2022/06/16 08:43:25;;;;;;;;;;;26.30;44.40;;;;;;1492202;78;1914;-56
2022/06/16 08:45:34;;;;;;;;;;;26.30;44.80;;;;;;1482842;78;757;-58
2022/06/16 08:47:41;;;;;;;;;;;26.30;44.30;;;;;;1493827;78;1127;-57
2022/06/16 08:50:03;;;;;;;;;;;26.40;44.30;;;;;;1492525;78;768;-55
2022/06/16 08:52:19;;;;;;;;;;;26.40;44.50;;;;;;1487783;78;757;-60
2022/06/16 08:54:22;;;;;;;;;;;26.40;44.00;;;;;;1493520;78;1658;-58
2022/06/16 08:56:26;;;;;;;;;;;26.30;44.20;;;;;;1494696;78;1132;-59
2022/06/16 08:58:32;;;;;;;;;;;26.40;44.00;;;;;;1490755;78;1814;-59
2022/06/16 09:00:36;;;;;;;;;;;26.30;44.40;;;;;;1488793;78;1768;-58
2022/06/16 09:02:40;;;;;;;;;;;26.40;43.90;;;;;;1498229;78;1980;-57
2022/06/16 09:04:43;;;;;;;;;;;26.40;44.30;;;;;;1500580;78;758;-58
2022/06/16 09:06:46;;;;;;;;;;;26.40;43.80;;;;;;1496507;78;1550;-57
2022/06/16 09:08:53;;;;;;;;;;;26.40;43.90;;;;;;1492573;78;714;-58
2022/06/16 09:11:05;;;;;;;;;;;26.40;43.90;;;;;;1491019;78;706;-58
2022/06/16 09:13:25;;;;;;;;;;;26.40;44.20;;;;;;1494450;78;767;-60
2022/06/16 09:15:29;;;;;;;;;;;26.50;44.10;;;;;;1491044;78;929;-57
2022/06/16 09:17:49;;;;;;;;;;;26.50;44.20;;;;;;1490992;78;1892;-57
2022/06/16 09:20:01;;;;;;;;;;;26.50;44.00;;;;;;1493544;78;860;-59
2022/06/16 09:22:10;;;;;;;;;;;26.50;43.70;;;;;;1491823;78;1657;-58
2022/06/16 09:24:14;;;;;;;;;;;26.50;43.40;;;;;;1497247;78;1958;-58
2022/06/16 09:26:20;;;;;;;;;;;26.70;43.30;;;;;;1492860;78;1119;-58
2022/06/16 09:28:31;;;;;;;;;;;26.50;43.40;;;;;;1502441;78;775;-60
2022/06/16 09:30:35;;;;;;;;;;;26.50;43.50;;;;;;1481688;78;664;-59
2022/06/16 09:32:50;;;;;;;;;;;26.70;43.40;;;;;;1491951;78;688;-58
2022/06/16 09:34:54;;;;;;;;;;;26.60;43.20;;;;;;1493687;78;1654;-57
2022/06/16 09:36:58;;;;;;;;;;;26.60;43.40;;;;;;1493476;78;1168;-58
2022/06/16 09:39:02;;;;;;;;;;;26.70;43.40;;;;;;1492682;78;768;-57
2022/06/16 09:43:37;;;;;;;;;;;26.70;43.40;;;;;;1502121;78;1886;-59
2022/06/16 09:45:44;;;;;;;;;;;26.60;43.40;;;;;;1492486;78;1141;-59
2022/06/16 09:47:54;;;;;;;;;;;26.60;43.40;;;;;;1493589;78;969;-60
2022/06/16 09:49:58;;;;;;;;;;;26.60;43.40;;;;;;1488815;78;1608;-59
2022/06/16 09:52:01;;;;;;;;;;;26.70;43.40;;;;;;1492427;78;686;-57
2022/06/16 09:54:07;;;;;;;;;;;26.70;43.40;;;;;;1485259;78;782;-60
2022/06/16 09:56:11;;;;;;;;;;;26.70;43.30;;;;;;1480975;78;1918;-57
2022/06/16 09:58:15;;;;;;;;;;;26.70;43.30;;;;;;1494553;78;807;-58
2022/06/16 10:00:21;;;;;;;;;;;26.70;43.30;;;;;;1492082;78;686;-58
2022/06/16 10:02:24;;;;;;;;;;;26.70;43.40;;;;;;1491425;78;738;-57
2022/06/16 10:04:25;;;;;;;;;;;26.70;43.30;;;;;;1492248;78;1934;-60
2022/06/16 10:06:32;;;;;;;;;;;26.70;43.30;;;;;;1498265;78;1151;-60
2022/06/16 10:08:38;;;;;;;;;;;26.70;43.20;;;;;;1493876;78;2186;-60
2022/06/16 10:10:50;;;;;;;;;;;26.70;43.30;;;;;;1492674;78;702;-58
2022/06/16 10:12:54;;;;;;;;;;;26.70;43.30;;;;;;1497975;78;1785;-60
2022/06/16 10:15:04;;;;;;;;;;;26.70;43.20;;;;;;1475257;78;1742;-57
2022/06/16 10:17:07;;;;;;;;;;;26.70;43.10;;;;;;1494120;78;1454;-58
2022/06/16 10:19:09;;;;;;;;;;;26.70;43.10;;;;;;1493737;78;856;-58
2022/06/16 10:21:11;;;;;;;;;;;26.70;43.10;;;;;;1491232;78;751;-60
2022/06/16 10:23:23;;;;;;;;;;;26.70;43.10;;;;;;1490699;78;1950;-59
2022/06/16 10:25:28;;;;;;;;;;;26.70;43.10;;;;;;1490332;78;698;-60
2022/06/16 10:27:31;;;;;;;;;;;26.70;43.10;;;;;;1503217;78;1101;-60
2022/06/16 10:29:33;;;;;;;;;;;26.70;43.10;;;;;;1492281;78;1174;-57
2022/06/16 10:31:40;;;;;;;;;;;26.70;43.10;;;;;;1455881;79;1624;-56
2022/06/16 10:33:55;;;;;;;;;;;26.70;43.10;;;;;;1493194;78;721;-57
2022/06/16 10:36:06;;;;;;;;;;;26.80;43.00;;;;;;1492502;78;1124;-57
2022/06/16 10:38:09;;;;;;;;;;;26.70;43.00;;;;;;1486087;78;816;-58
2022/06/16 10:40:13;;;;;;;;;;;26.70;42.90;;;;;;1492396;78;847;-58
2022/06/16 10:42:16;;;;;;;;;;;26.70;42.90;;;;;;1494325;78;1058;-61
2022/06/16 10:44:18;;;;;;;;;;;26.70;42.90;;;;;;1496860;78;1933;-58
2022/06/16 10:46:22;;;;;;;;;;;26.70;42.90;;;;;;1494037;78;1581;-56
2022/06/16 10:48:32;;;;;;;;;;;26.80;42.80;;;;;;1489992;78;1149;-60
2022/06/16 10:50:33;;;;;;;;;;;26.80;42.80;;;;;;1487232;78;1294;-58
2022/06/16 10:52:39;;;;;;;;;;;26.70;42.70;;;;;;1497392;78;1863;-57
2022/06/16 10:54:45;;;;;;;;;;;26.80;42.80;;;;;;1495776;78;1820;-57
2022/06/16 10:56:46;;;;;;;;;;;26.80;42.70;;;;;;1492314;78;1195;-57
2022/06/16 10:58:50;;;;;;;;;;;26.80;42.60;;;;;;1477641;78;772;-60
2022/06/16 11:01:10;;;;;;;;;;;26.80;42.60;;;;;;1487693;78;1687;-58
2022/06/16 11:03:13;;;;;;;;;;;26.80;42.60;;;;;;1487412;78;1932;-58
2022/06/16 11:05:15;;;;;;;;;;;26.70;42.70;;;;;;1494307;78;703;-57
2022/06/16 11:07:21;;;;;;;;;;;26.70;42.80;;;;;;1492656;78;1131;-59
2022/06/16 11:09:24;;;;;;;;;;;26.70;42.80;;;;;;1498184;78;693;-59
2022/06/16 11:11:39;;;;;;;;;;;26.60;42.90;;;;;;1498914;78;692;-57
2022/06/16 11:13:38;;;;;;;;;;;26.50;43.00;;;;;;1494769;78;1631;-59
2022/06/16 11:15:40;;;;;;;;;;;26.50;43.10;;;;;;1489378;78;1088;-57
2022/06/16 11:17:42;;;;;;;;;;;26.50;43.10;;;;;;1488040;78;685;-57
2022/06/16 11:19:46;;;;;;;;;;;26.50;43.10;;;;;;1491798;78;730;-57
2022/06/16 11:21:48;;;;;;;;;;;26.60;43.20;;;;;;1498265;78;1206;-57
2022/06/16 11:23:50;;;;;;;;;;;26.50;43.20;;;;;;1487253;78;1910;-58
2022/06/16 11:26:03;;;;;;;;;;;26.50;43.20;;;;;;1493870;78;1148;-60
2022/06/16 11:28:10;;;;;;;;;;;26.50;43.20;;;;;;1487756;78;1817;-56
2022/06/16 11:30:31;;;;;;;;;;;26.50;43.30;;;;;;1494224;78;709;-59
2022/06/16 11:32:35;;;;;;;;;;;26.50;43.30;;;;;;1492712;78;705;-58
2022/06/16 11:34:36;;;;;;;;;;;26.50;43.40;;;;;;1492422;78;698;-57
2022/06/16 11:36:43;;;;;;;;;;;26.30;43.40;;;;;;1491949;78;1113;-59
2022/06/16 11:38:47;;;;;;;;;;;26.30;43.40;;;;;;1485904;78;735;-57
2022/06/16 11:40:50;;;;;;;;;;;26.40;43.40;;;;;;1471096;78;1013;-58
2022/06/16 11:42:59;;;;;;;;;;;26.40;43.40;;;;;;1491130;78;1572;-59
2022/06/16 11:45:05;;;;;;;;;;;26.40;43.50;;;;;;1491280;78;695;-59
2022/06/16 11:47:18;;;;;;;;;;;26.30;43.40;;;;;;1494267;78;1162;-60
2022/06/16 11:49:33;;;;;;;;;;;26.40;43.50;;;;;;1487288;78;1809;-60
2022/06/16 11:51:37;;;;;;;;;;;26.40;43.50;;;;;;1495214;78;625;-57
2022/06/16 11:53:49;;;;;;;;;;;26.30;43.50;;;;;;1489955;78;699;-57
2022/06/16 11:55:53;;;;;;;;;;;26.40;43.50;;;;;;1505037;77;1941;-58
2022/06/16 11:58:11;;;;;;;;;;;26.30;43.50;;;;;;1491767;78;1853;-59
2022/06/16 12:00:31;;;;;;;;;;;26.40;43.50;;;;;;1489965;78;695;-60
2022/06/16 12:02:47;;;;;;;;;;;26.40;43.50;;;;;;1488388;78;679;-61
2022/06/16 12:04:54;;;;;;;;;;;26.40;43.50;;;;;;1493650;78;1934;-60
2022/06/16 12:06:57;;;;;;;;;;;26.40;43.50;;;;;;1485657;78;1749;-59
2022/06/16 12:09:09;;;;;;;;;;;26.40;43.40;;;;;;1495155;78;1851;-58
2022/06/16 12:11:12;;;;;;;;;;;26.40;43.40;;;;;;1495968;78;1777;-59
2022/06/16 12:13:18;;;;;;;;;;;26.40;43.50;;;;;;1497152;78;828;-59
2022/06/16 12:15:40;;;;;;;;;;;26.40;43.50;;;;;;1500169;78;741;-60
2022/06/16 12:17:49;;;;;;;;;;;26.40;43.40;;;;;;1480665;78;757;-60
2022/06/16 12:20:05;;;;;;;;;;;26.40;43.40;;;;;;1495594;78;1122;-58
2022/06/16 12:22:24;;;;;;;;;;;26.30;43.40;;;;;;1487963;78;902;-58
2022/06/16 12:24:27;;;;;;;;;;;26.30;43.40;;;;;;1494946;78;1932;-56
2022/06/16 12:26:51;;;;;;;;;;;26.30;43.40;;;;;;1488047;78;1060;-58
2022/06/16 12:28:57;;;;;;;;;;;26.40;43.40;;;;;;1412581;82;1683;-60
2022/06/16 12:30:59;;;;;;;;;;;26.30;43.40;;;;;;1409289;82;2147;-59
2022/06/16 12:33:19;;;;;;;;;;;26.40;43.40;;;;;;1416909;82;806;-60
2022/06/16 12:35:34;;;;;;;;;;;26.40;43.40;;;;;;1493365;78;965;-57
2022/06/16 12:37:38;;;;;;;;;;;26.40;43.40;;;;;;1500348;77;1371;-59
2022/06/16 12:39:41;;;;;;;;;;;26.30;43.40;;;;;;1497179;78;703;-58